sensor_id;sensor_type;location;lat;lon;timestamp;P1;durP1;ratioP1;P2;durP2;ratioP2
52740;SDS011;38634;52.138;9.912;2023-04-15T00:00:21;4.07;;;2.30;;
52740;SDS011;38634;52.138;9.912;2023-04-15T00:03:06;7.55;;;2.90;;
52740;SDS011;38634;52.138;9.912;2023-04-15T00:05:51;5.95;;;2.35;;
52740;SDS011;38634;52.138;9.912;2023-04-15T00:08:35;7.85;;;2.97;;
52740;SDS011;38634;52.138;9.912;2023-04-15T00:11:20;8.00;;;3.03;;
52740;SDS011;38634;52.138;9.912;2023-04-15T00:14:05;5.35;;;2.50;;
52740;SDS011;38634;52.138;9.912;2023-04-15T00:16:50;3.80;;;2.47;;
52740;SDS011;38634;52.138;9.912;2023-04-15T00:19:38;6.07;;;2.55;;
52740;SDS011;38634;52.138;9.912;2023-04-15T00:22:23;7.07;;;2.63;;
52740;SDS011;38634;52.138;9.912;2023-04-15T00:25:09;5.93;;;2.63;;
52740;SDS011;38634;52.138;9.912;2023-04-15T00:27:54;4.68;;;2.17;;
52740;SDS011;38634;52.138;9.912;2023-04-15T00:30:39;2.30;;;2.10;;
52740;SDS011;38634;52.138;9.912;2023-04-15T00:33:24;3.28;;;2.10;;
52740;SDS011;38634;52.138;9.912;2023-04-15T00:36:08;5.70;;;2.60;;
52740;SDS011;38634;52.138;9.912;2023-04-15T00:38:56;2.65;;;2.42;;
52740;SDS011;38634;52.138;9.912;2023-04-15T00:41:41;2.50;;;2.30;;
52740;SDS011;38634;52.138;9.912;2023-04-15T00:44:26;2.78;;;2.25;;
52740;SDS011;38634;52.138;9.912;2023-04-15T00:47:11;3.05;;;2.78;;
52740;SDS011;38634;52.138;9.912;2023-04-15T00:49:56;2.75;;;2.47;;
52740;SDS011;38634;52.138;9.912;2023-04-15T00:52:41;2.88;;;2.65;;
52740;SDS011;38634;52.138;9.912;2023-04-15T00:55:25;2.40;;;2.20;;
52740;SDS011;38634;52.138;9.912;2023-04-15T00:58:10;3.33;;;2.22;;
52740;SDS011;38634;52.138;9.912;2023-04-15T01:00:55;3.80;;;2.45;;
52740;SDS011;38634;52.138;9.912;2023-04-15T01:03:41;2.92;;;2.42;;
52740;SDS011;38634;52.138;9.912;2023-04-15T01:06:25;3.42;;;2.60;;
52740;SDS011;38634;52.138;9.912;2023-04-15T01:09:10;3.45;;;2.60;;
52740;SDS011;38634;52.138;9.912;2023-04-15T01:11:55;2.35;;;2.15;;
52740;SDS011;38634;52.138;9.912;2023-04-15T01:14:40;2.90;;;2.70;;
52740;SDS011;38634;52.138;9.912;2023-04-15T01:17:24;2.95;;;2.38;;
52740;SDS011;38634;52.138;9.912;2023-04-15T01:20:09;2.33;;;2.13;;
52740;SDS011;38634;52.138;9.912;2023-04-15T01:22:54;2.40;;;2.20;;
52740;SDS011;38634;52.138;9.912;2023-04-15T01:25:39;2.53;;;2.25;;
52740;SDS011;38634;52.138;9.912;2023-04-15T01:28:25;2.60;;;2.38;;
52740;SDS011;38634;52.138;9.912;2023-04-15T01:31:10;2.38;;;2.10;;
52740;SDS011;38634;52.138;9.912;2023-04-15T01:33:57;2.85;;;2.40;;
52740;SDS011;38634;52.138;9.912;2023-04-15T01:36:42;2.83;;;2.35;;
52740;SDS011;38634;52.138;9.912;2023-04-15T01:39:27;2.50;;;2.22;;
52740;SDS011;38634;52.138;9.912;2023-04-15T01:42:12;4.70;;;2.58;;
52740;SDS011;38634;52.138;9.912;2023-04-15T01:44:56;7.20;;;2.70;;
52740;SDS011;38634;52.138;9.912;2023-04-15T01:47:41;5.63;;;2.47;;
52740;SDS011;38634;52.138;9.912;2023-04-15T01:50:26;2.38;;;2.17;;
52740;SDS011;38634;52.138;9.912;2023-04-15T01:53:10;2.75;;;2.53;;
52740;SDS011;38634;52.138;9.912;2023-04-15T01:55:55;2.63;;;2.40;;
52740;SDS011;38634;52.138;9.912;2023-04-15T01:58:40;2.65;;;2.45;;
52740;SDS011;38634;52.138;9.912;2023-04-15T02:01:24;2.50;;;2.30;;
52740;SDS011;38634;52.138;9.912;2023-04-15T02:04:09;3.30;;;3.00;;
52740;SDS011;38634;52.138;9.912;2023-04-15T02:06:59;3.03;;;2.70;;
52740;SDS011;38634;52.138;9.912;2023-04-15T02:09:43;2.25;;;2.05;;
52740;SDS011;38634;52.138;9.912;2023-04-15T02:12:29;2.90;;;2.60;;
52740;SDS011;38634;52.138;9.912;2023-04-15T02:15:13;2.63;;;2.33;;
52740;SDS011;38634;52.138;9.912;2023-04-15T02:17:58;9.13;;;3.58;;
52740;SDS011;38634;52.138;9.912;2023-04-15T02:20:43;6.60;;;2.60;;
52740;SDS011;38634;52.138;9.912;2023-04-15T02:23:28;3.13;;;2.83;;
52740;SDS011;38634;52.138;9.912;2023-04-15T02:26:13;2.67;;;2.15;;
52740;SDS011;38634;52.138;9.912;2023-04-15T02:28:58;2.50;;;2.30;;
52740;SDS011;38634;52.138;9.912;2023-04-15T02:31:42;2.90;;;2.65;;
52740;SDS011;38634;52.138;9.912;2023-04-15T02:34:27;2.30;;;2.10;;
52740;SDS011;38634;52.138;9.912;2023-04-15T02:37:12;2.70;;;2.50;;
52740;SDS011;38634;52.138;9.912;2023-04-15T02:39:57;2.42;;;2.22;;
52740;SDS011;38634;52.138;9.912;2023-04-15T10:57:08;20.95;;;6.95;;
52740;SDS011;38634;52.138;9.912;2023-04-15T11:02:58;10.63;;;5.40;;
52740;SDS011;38634;52.138;9.912;2023-04-15T11:05:51;22.65;;;9.20;;
52740;SDS011;38634;52.138;9.912;2023-04-15T11:12:04;12.63;;;4.95;;
52740;SDS011;38634;52.138;9.912;2023-04-15T11:14:53;23.75;;;7.32;;
52740;SDS011;38634;52.138;9.912;2023-04-15T11:17:37;12.13;;;4.53;;
52740;SDS011;38634;52.138;9.912;2023-04-15T11:20:22;12.30;;;4.78;;
52740;SDS011;38634;52.138;9.912;2023-04-15T11:23:08;20.85;;;7.03;;
52740;SDS011;38634;52.138;9.912;2023-04-15T11:25:54;26.00;;;7.78;;
52740;SDS011;38634;52.138;9.912;2023-04-15T11:28:42;12.63;;;4.65;;
52740;SDS011;38634;52.138;9.912;2023-04-15T11:31:28;14.25;;;5.10;;
52740;SDS011;38634;52.138;9.912;2023-04-15T11:34:13;25.30;;;7.82;;
52740;SDS011;38634;52.138;9.912;2023-04-15T11:37:05;14.57;;;5.43;;
52740;SDS011;38634;52.138;9.912;2023-04-15T11:39:50;14.90;;;5.40;;
52740;SDS011;38634;52.138;9.912;2023-04-15T11:42:35;20.08;;;7.05;;
52740;SDS011;38634;52.138;9.912;2023-04-15T11:45:20;18.92;;;7.57;;
52740;SDS011;38634;52.138;9.912;2023-04-15T11:48:08;18.83;;;7.18;;
52740;SDS011;38634;52.138;9.912;2023-04-15T11:51:01;9.45;;;4.10;;
52740;SDS011;38634;52.138;9.912;2023-04-15T11:53:48;25.48;;;9.00;;
52740;SDS011;38634;52.138;9.912;2023-04-15T11:56:33;20.75;;;6.80;;
52740;SDS011;38634;52.138;9.912;2023-04-15T11:59:19;15.10;;;5.65;;
52740;SDS011;38634;52.138;9.912;2023-04-15T12:02:10;16.25;;;6.32;;
52740;SDS011;38634;52.138;9.912;2023-04-15T12:05:03;19.08;;;6.40;;
52740;SDS011;38634;52.138;9.912;2023-04-15T12:07:58;16.20;;;6.25;;
52740;SDS011;38634;52.138;9.912;2023-04-15T12:10:43;18.40;;;6.82;;
52740;SDS011;38634;52.138;9.912;2023-04-15T12:13:28;11.70;;;5.85;;
52740;SDS011;38634;52.138;9.912;2023-04-15T12:16:15;11.25;;;4.57;;
52740;SDS011;38634;52.138;9.912;2023-04-15T12:19:03;18.98;;;7.43;;
52740;SDS011;38634;52.138;9.912;2023-04-15T12:21:52;7.50;;;4.40;;
52740;SDS011;38634;52.138;9.912;2023-04-15T12:24:53;20.35;;;8.32;;
52740;SDS011;38634;52.138;9.912;2023-04-15T12:27:40;8.23;;;5.18;;
52740;SDS011;38634;52.138;9.912;2023-04-15T12:30:25;10.02;;;5.57;;
52740;SDS011;38634;52.138;9.912;2023-04-15T12:33:09;22.25;;;7.60;;
52740;SDS011;38634;52.138;9.912;2023-04-15T12:35:54;21.70;;;7.30;;
52740;SDS011;38634;52.138;9.912;2023-04-15T12:38:39;11.60;;;5.63;;
52740;SDS011;38634;52.138;9.912;2023-04-15T12:41:23;10.00;;;4.60;;
52740;SDS011;38634;52.138;9.912;2023-04-15T12:44:09;17.80;;;6.95;;
52740;SDS011;38634;52.138;9.912;2023-04-15T12:46:53;26.42;;;9.95;;
52740;SDS011;38634;52.138;9.912;2023-04-15T12:49:39;17.60;;;7.05;;
52740;SDS011;38634;52.138;9.912;2023-04-15T12:52:24;11.43;;;5.30;;
52740;SDS011;38634;52.138;9.912;2023-04-15T12:55:08;15.80;;;5.88;;
52740;SDS011;38634;52.138;9.912;2023-04-15T12:57:53;21.60;;;7.05;;
52740;SDS011;38634;52.138;9.912;2023-04-15T13:00:38;16.15;;;6.50;;
52740;SDS011;38634;52.138;9.912;2023-04-15T13:03:22;12.98;;;5.20;;
52740;SDS011;38634;52.138;9.912;2023-04-15T13:06:07;8.10;;;3.75;;
52740;SDS011;38634;52.138;9.912;2023-04-15T13:08:52;15.80;;;5.70;;
52740;SDS011;38634;52.138;9.912;2023-04-15T13:11:37;20.92;;;7.70;;
52740;SDS011;38634;52.138;9.912;2023-04-15T13:14:22;15.05;;;6.38;;
52740;SDS011;38634;52.138;9.912;2023-04-15T13:17:07;10.20;;;4.70;;
52740;SDS011;38634;52.138;9.912;2023-04-15T13:19:53;12.50;;;5.72;;
52740;SDS011;38634;52.138;9.912;2023-04-15T13:22:37;18.25;;;8.07;;
52740;SDS011;38634;52.138;9.912;2023-04-15T13:25:22;19.92;;;7.65;;
52740;SDS011;38634;52.138;9.912;2023-04-15T13:28:06;9.85;;;4.47;;
52740;SDS011;38634;52.138;9.912;2023-04-15T13:30:51;10.48;;;5.38;;
52740;SDS011;38634;52.138;9.912;2023-04-15T13:33:36;16.40;;;7.80;;
52740;SDS011;38634;52.138;9.912;2023-04-15T13:36:20;19.38;;;7.60;;
52740;SDS011;38634;52.138;9.912;2023-04-15T13:39:05;17.92;;;6.97;;
52740;SDS011;38634;52.138;9.912;2023-04-15T13:41:50;8.43;;;4.28;;
52740;SDS011;38634;52.138;9.912;2023-04-15T13:44:34;7.82;;;3.63;;
52740;SDS011;38634;52.138;9.912;2023-04-15T13:47:19;17.60;;;7.00;;
52740;SDS011;38634;52.138;9.912;2023-04-15T13:50:04;16.88;;;6.40;;
52740;SDS011;38634;52.138;9.912;2023-04-15T13:52:49;8.32;;;5.13;;
52740;SDS011;38634;52.138;9.912;2023-04-15T13:55:34;6.93;;;3.83;;
52740;SDS011;38634;52.138;9.912;2023-04-15T13:58:21;13.10;;;5.68;;
52740;SDS011;38634;52.138;9.912;2023-04-15T14:01:05;16.90;;;6.60;;
52740;SDS011;38634;52.138;9.912;2023-04-15T14:03:50;14.95;;;6.07;;
52740;SDS011;38634;52.138;9.912;2023-04-15T14:06:35;11.15;;;5.95;;
52740;SDS011;38634;52.138;9.912;2023-04-15T14:09:19;11.32;;;5.20;;
52740;SDS011;38634;52.138;9.912;2023-04-15T14:12:06;19.40;;;7.32;;
52740;SDS011;38634;52.138;9.912;2023-04-15T14:14:50;19.17;;;7.20;;
52740;SDS011;38634;52.138;9.912;2023-04-15T14:17:35;10.10;;;4.82;;
52740;SDS011;38634;52.138;9.912;2023-04-15T14:20:20;9.55;;;4.68;;
52740;SDS011;38634;52.138;9.912;2023-04-15T14:23:04;17.23;;;6.30;;
52740;SDS011;38634;52.138;9.912;2023-04-15T14:25:49;19.70;;;7.28;;
52740;SDS011;38634;52.138;9.912;2023-04-15T14:28:34;13.93;;;5.95;;
52740;SDS011;38634;52.138;9.912;2023-04-15T14:31:21;6.70;;;2.75;;
52740;SDS011;38634;52.138;9.912;2023-04-15T14:34:05;15.52;;;5.97;;
52740;SDS011;38634;52.138;9.912;2023-04-15T14:36:50;17.13;;;7.63;;
52740;SDS011;38634;52.138;9.912;2023-04-15T14:39:38;10.77;;;4.68;;
52740;SDS011;38634;52.138;9.912;2023-04-15T14:42:23;11.52;;;5.55;;
52740;SDS011;38634;52.138;9.912;2023-04-15T14:45:08;10.15;;;4.50;;
52740;SDS011;38634;52.138;9.912;2023-04-15T14:47:53;14.57;;;5.65;;
52740;SDS011;38634;52.138;9.912;2023-04-15T14:50:39;16.15;;;7.40;;
52740;SDS011;38634;52.138;9.912;2023-04-15T14:53:23;7.63;;;3.95;;
52740;SDS011;38634;52.138;9.912;2023-04-15T14:56:08;8.90;;;3.88;;
52740;SDS011;38634;52.138;9.912;2023-04-15T14:58:52;16.38;;;7.03;;
52740;SDS011;38634;52.138;9.912;2023-04-15T15:01:37;21.10;;;9.05;;
52740;SDS011;38634;52.138;9.912;2023-04-15T15:04:22;13.35;;;5.20;;
52740;SDS011;38634;52.138;9.912;2023-04-15T15:07:07;7.53;;;3.60;;
52740;SDS011;38634;52.138;9.912;2023-04-15T15:09:51;11.65;;;4.55;;
52740;SDS011;38634;52.138;9.912;2023-04-15T15:12:37;15.68;;;6.20;;
52740;SDS011;38634;52.138;9.912;2023-04-15T15:15:21;21.77;;;6.90;;
52740;SDS011;38634;52.138;9.912;2023-04-15T15:18:06;9.48;;;4.47;;
52740;SDS011;38634;52.138;9.912;2023-04-15T15:20:51;9.43;;;4.65;;
52740;SDS011;38634;52.138;9.912;2023-04-15T15:23:36;11.85;;;5.15;;
52740;SDS011;38634;52.138;9.912;2023-04-15T15:26:20;14.95;;;6.25;;
52740;SDS011;38634;52.138;9.912;2023-04-15T15:29:05;8.65;;;3.95;;
52740;SDS011;38634;52.138;9.912;2023-04-15T15:31:49;6.72;;;3.53;;
52740;SDS011;38634;52.138;9.912;2023-04-15T15:34:34;8.93;;;4.22;;
52740;SDS011;38634;52.138;9.912;2023-04-15T15:37:19;16.70;;;7.10;;
52740;SDS011;38634;52.138;9.912;2023-04-15T15:40:03;13.88;;;5.63;;
52740;SDS011;38634;52.138;9.912;2023-04-15T15:42:49;8.70;;;3.78;;
52740;SDS011;38634;52.138;9.912;2023-04-15T15:45:33;5.80;;;2.88;;
52740;SDS011;38634;52.138;9.912;2023-04-15T15:48:18;16.58;;;6.65;;
52740;SDS011;38634;52.138;9.912;2023-04-15T15:51:03;18.40;;;7.32;;
52740;SDS011;38634;52.138;9.912;2023-04-15T15:53:48;13.43;;;5.93;;
52740;SDS011;38634;52.138;9.912;2023-04-15T15:56:33;8.00;;;3.78;;
52740;SDS011;38634;52.138;9.912;2023-04-15T15:59:17;8.68;;;4.20;;
52740;SDS011;38634;52.138;9.912;2023-04-15T16:02:02;14.80;;;5.68;;
52740;SDS011;38634;52.138;9.912;2023-04-15T16:04:47;15.52;;;5.97;;
52740;SDS011;38634;52.138;9.912;2023-04-15T16:07:32;7.65;;;3.78;;
52740;SDS011;38634;52.138;9.912;2023-04-15T16:10:17;7.53;;;3.47;;
52740;SDS011;38634;52.138;9.912;2023-04-15T16:13:01;13.38;;;5.68;;
52740;SDS011;38634;52.138;9.912;2023-04-15T16:15:46;14.85;;;6.28;;
52740;SDS011;38634;52.138;9.912;2023-04-15T16:18:32;11.15;;;5.28;;
52740;SDS011;38634;52.138;9.912;2023-04-15T16:21:17;6.40;;;3.50;;
52740;SDS011;38634;52.138;9.912;2023-04-15T16:24:02;11.05;;;5.03;;
52740;SDS011;38634;52.138;9.912;2023-04-15T16:26:47;14.05;;;6.45;;
52740;SDS011;38634;52.138;9.912;2023-04-15T16:29:32;11.85;;;5.78;;
52740;SDS011;38634;52.138;9.912;2023-04-15T16:32:17;6.88;;;3.90;;
52740;SDS011;38634;52.138;9.912;2023-04-15T16:35:02;7.63;;;4.55;;
52740;SDS011;38634;52.138;9.912;2023-04-15T16:37:46;10.32;;;5.32;;
52740;SDS011;38634;52.138;9.912;2023-04-15T16:40:31;10.38;;;5.65;;
52740;SDS011;38634;52.138;9.912;2023-04-15T16:43:15;12.98;;;5.63;;
52740;SDS011;38634;52.138;9.912;2023-04-15T16:46:00;6.15;;;3.53;;
52740;SDS011;38634;52.138;9.912;2023-04-15T16:48:45;10.40;;;4.75;;
52740;SDS011;38634;52.138;9.912;2023-04-15T16:51:29;14.27;;;5.70;;
52740;SDS011;38634;52.138;9.912;2023-04-15T16:54:14;13.95;;;5.85;;
52740;SDS011;38634;52.138;9.912;2023-04-15T16:56:59;6.32;;;3.47;;
52740;SDS011;38634;52.138;9.912;2023-04-15T16:59:45;8.05;;;3.92;;
52740;SDS011;38634;52.138;9.912;2023-04-15T17:02:29;14.82;;;5.97;;
52740;SDS011;38634;52.138;9.912;2023-04-15T17:05:14;17.40;;;6.80;;
52740;SDS011;38634;52.138;9.912;2023-04-15T17:07:59;11.48;;;5.07;;
52740;SDS011;38634;52.138;9.912;2023-04-15T17:10:46;9.68;;;4.70;;
52740;SDS011;38634;52.138;9.912;2023-04-15T17:13:31;11.18;;;5.78;;
52740;SDS011;38634;52.138;9.912;2023-04-15T17:16:16;19.08;;;8.07;;
52740;SDS011;38634;52.138;9.912;2023-04-15T17:19:00;8.38;;;3.58;;
52740;SDS011;38634;52.138;9.912;2023-04-15T17:21:45;13.20;;;4.40;;
52740;SDS011;38634;52.138;9.912;2023-04-15T17:24:30;7.63;;;3.83;;
52740;SDS011;38634;52.138;9.912;2023-04-15T17:27:14;7.15;;;3.50;;
52740;SDS011;38634;52.138;9.912;2023-04-15T17:30:02;7.57;;;3.47;;
52740;SDS011;38634;52.138;9.912;2023-04-15T17:32:47;10.68;;;4.20;;
52740;SDS011;38634;52.138;9.912;2023-04-15T17:35:32;3.83;;;2.40;;
52740;SDS011;38634;52.138;9.912;2023-04-15T17:38:16;2.28;;;1.88;;
52740;SDS011;38634;52.138;9.912;2023-04-15T17:41:01;2.65;;;2.33;;
52740;SDS011;38634;52.138;9.912;2023-04-15T17:43:45;3.50;;;2.65;;
52740;SDS011;38634;52.138;9.912;2023-04-15T17:46:30;3.83;;;2.28;;
52740;SDS011;38634;52.138;9.912;2023-04-15T17:49:15;3.63;;;2.35;;
52740;SDS011;38634;52.138;9.912;2023-04-15T17:51:59;3.17;;;2.85;;
52740;SDS011;38634;52.138;9.912;2023-04-15T17:54:44;2.33;;;2.13;;
52740;SDS011;38634;52.138;9.912;2023-04-15T17:57:29;2.38;;;2.22;;
52740;SDS011;38634;52.138;9.912;2023-04-15T18:00:14;2.80;;;2.60;;
52740;SDS011;38634;52.138;9.912;2023-04-15T18:02:59;2.20;;;2.10;;
52740;SDS011;38634;52.138;9.912;2023-04-15T18:05:44;2.55;;;2.42;;
52740;SDS011;38634;52.138;9.912;2023-04-15T18:08:28;2.50;;;2.30;;
52740;SDS011;38634;52.138;9.912;2023-04-15T18:11:14;2.50;;;2.30;;
52740;SDS011;38634;52.138;9.912;2023-04-15T18:13:58;2.05;;;1.95;;
52740;SDS011;38634;52.138;9.912;2023-04-15T18:16:45;2.90;;;2.63;;
52740;SDS011;38634;52.138;9.912;2023-04-15T18:19:30;1.70;;;1.60;;
52740;SDS011;38634;52.138;9.912;2023-04-15T18:22:14;2.53;;;2.35;;
52740;SDS011;38634;52.138;9.912;2023-04-15T18:24:59;2.25;;;2.05;;
52740;SDS011;38634;52.138;9.912;2023-04-15T18:27:47;2.05;;;1.95;;
52740;SDS011;38634;52.138;9.912;2023-04-15T18:30:32;2.33;;;2.15;;
52740;SDS011;38634;52.138;9.912;2023-04-15T18:33:17;1.90;;;1.80;;
52740;SDS011;38634;52.138;9.912;2023-04-15T18:36:01;1.98;;;1.88;;
52740;SDS011;38634;52.138;9.912;2023-04-15T18:38:46;2.65;;;2.22;;
52740;SDS011;38634;52.138;9.912;2023-04-15T18:41:30;2.10;;;2.00;;
52740;SDS011;38634;52.138;9.912;2023-04-15T18:44:15;2.50;;;2.30;;
52740;SDS011;38634;52.138;9.912;2023-04-15T18:47:00;2.15;;;1.98;;
52740;SDS011;38634;52.138;9.912;2023-04-15T18:49:44;2.25;;;2.05;;
52740;SDS011;38634;52.138;9.912;2023-04-15T18:52:29;2.67;;;2.47;;
52740;SDS011;38634;52.138;9.912;2023-04-15T18:55:14;1.70;;;1.60;;
52740;SDS011;38634;52.138;9.912;2023-04-15T18:57:58;1.42;;;1.35;;
52740;SDS011;38634;52.138;9.912;2023-04-15T19:00:43;2.67;;;2.38;;
52740;SDS011;38634;52.138;9.912;2023-04-15T19:03:28;1.70;;;1.60;;
52740;SDS011;38634;52.138;9.912;2023-04-15T19:06:13;5.53;;;3.78;;
52740;SDS011;38634;52.138;9.912;2023-04-15T19:08:57;1.83;;;1.73;;
52740;SDS011;38634;52.138;9.912;2023-04-15T19:11:42;2.30;;;2.15;;
52740;SDS011;38634;52.138;9.912;2023-04-15T19:14:27;2.75;;;2.55;;
52740;SDS011;38634;52.138;9.912;2023-04-15T19:17:11;2.33;;;2.13;;
52740;SDS011;38634;52.138;9.912;2023-04-15T19:19:56;2.33;;;2.13;;
52740;SDS011;38634;52.138;9.912;2023-04-15T19:22:40;2.05;;;1.95;;
52740;SDS011;38634;52.138;9.912;2023-04-15T19:25:26;2.20;;;2.00;;
52740;SDS011;38634;52.138;9.912;2023-04-15T19:28:10;1.90;;;1.80;;
52740;SDS011;38634;52.138;9.912;2023-04-15T19:30:55;1.73;;;1.63;;
52740;SDS011;38634;52.138;9.912;2023-04-15T19:33:40;1.65;;;1.55;;
52740;SDS011;38634;52.138;9.912;2023-04-15T19:36:25;1.90;;;1.80;;
52740;SDS011;38634;52.138;9.912;2023-04-15T19:39:11;1.67;;;1.58;;
52740;SDS011;38634;52.138;9.912;2023-04-15T19:41:56;1.80;;;1.70;;
52740;SDS011;38634;52.138;9.912;2023-04-15T19:44:42;1.77;;;1.67;;
52740;SDS011;38634;52.138;9.912;2023-04-15T19:47:26;2.10;;;2.00;;
52740;SDS011;38634;52.138;9.912;2023-04-15T19:50:11;2.00;;;1.90;;
52740;SDS011;38634;52.138;9.912;2023-04-15T19:52:58;2.65;;;2.45;;
52740;SDS011;38634;52.138;9.912;2023-04-15T19:55:42;1.90;;;1.80;;
52740;SDS011;38634;52.138;9.912;2023-04-15T19:58:27;2.20;;;1.80;;
52740;SDS011;38634;52.138;9.912;2023-04-15T20:01:12;3.00;;;2.10;;
52740;SDS011;38634;52.138;9.912;2023-04-15T20:03:56;2.72;;;2.53;;
52740;SDS011;38634;52.138;9.912;2023-04-15T20:06:41;2.15;;;2.05;;
52740;SDS011;38634;52.138;9.912;2023-04-15T20:09:26;2.05;;;1.95;;
52740;SDS011;38634;52.138;9.912;2023-04-15T20:12:10;1.83;;;1.73;;
52740;SDS011;38634;52.138;9.912;2023-04-15T20:14:55;2.47;;;2.28;;
52740;SDS011;38634;52.138;9.912;2023-04-15T20:17:40;1.83;;;1.73;;
52740;SDS011;38634;52.138;9.912;2023-04-15T20:20:24;1.63;;;1.52;;
52740;SDS011;38634;52.138;9.912;2023-04-15T20:23:09;1.88;;;1.77;;
52740;SDS011;38634;52.138;9.912;2023-04-15T20:25:54;1.77;;;1.67;;
52740;SDS011;38634;52.138;9.912;2023-04-15T20:28:38;2.00;;;1.90;;
52740;SDS011;38634;52.138;9.912;2023-04-15T20:31:23;1.80;;;1.70;;
52740;SDS011;38634;52.138;9.912;2023-04-15T20:34:07;1.90;;;1.80;;
52740;SDS011;38634;52.138;9.912;2023-04-15T20:36:52;1.83;;;1.60;;
52740;SDS011;38634;52.138;9.912;2023-04-15T20:39:37;1.65;;;1.55;;
52740;SDS011;38634;52.138;9.912;2023-04-15T20:42:23;1.95;;;1.85;;
52740;SDS011;38634;52.138;9.912;2023-04-15T20:45:08;1.90;;;1.80;;
52740;SDS011;38634;52.138;9.912;2023-04-15T20:47:53;3.03;;;2.55;;
52740;SDS011;38634;52.138;9.912;2023-04-15T20:50:38;2.08;;;1.98;;
52740;SDS011;38634;52.138;9.912;2023-04-15T20:53:23;2.35;;;2.15;;
52740;SDS011;38634;52.138;9.912;2023-04-15T20:56:08;1.95;;;1.80;;
52740;SDS011;38634;52.138;9.912;2023-04-15T20:58:53;2.63;;;2.05;;
52740;SDS011;38634;52.138;9.912;2023-04-15T21:01:37;2.72;;;2.35;;
52740;SDS011;38634;52.138;9.912;2023-04-15T21:04:23;2.53;;;2.33;;
52740;SDS011;38634;52.138;9.912;2023-04-15T21:07:08;2.13;;;1.92;;
52740;SDS011;38634;52.138;9.912;2023-04-15T21:09:53;2.08;;;1.98;;
52740;SDS011;38634;52.138;9.912;2023-04-15T21:12:38;3.10;;;2.80;;
52740;SDS011;38634;52.138;9.912;2023-04-15T21:15:23;4.15;;;3.78;;
52740;SDS011;38634;52.138;9.912;2023-04-15T21:18:08;3.85;;;2.22;;
52740;SDS011;38634;52.138;9.912;2023-04-15T21:20:59;2.72;;;2.45;;
52740;SDS011;38634;52.138;9.912;2023-04-15T21:23:45;2.70;;;2.38;;
52740;SDS011;38634;52.138;9.912;2023-04-15T21:26:29;2.40;;;2.05;;
52740;SDS011;38634;52.138;9.912;2023-04-15T21:29:14;2.58;;;2.38;;
52740;SDS011;38634;52.138;9.912;2023-04-15T21:31:59;2.22;;;2.03;;
52740;SDS011;38634;52.138;9.912;2023-04-15T21:34:43;3.00;;;2.22;;
52740;SDS011;38634;52.138;9.912;2023-04-15T21:37:28;2.00;;;1.80;;
52740;SDS011;38634;52.138;9.912;2023-04-15T21:40:12;3.70;;;3.40;;
52740;SDS011;38634;52.138;9.912;2023-04-15T21:42:58;2.08;;;1.98;;
52740;SDS011;38634;52.138;9.912;2023-04-15T21:45:43;2.65;;;2.45;;
52740;SDS011;38634;52.138;9.912;2023-04-15T21:48:27;2.65;;;2.45;;
52740;SDS011;38634;52.138;9.912;2023-04-15T21:51:12;2.60;;;2.38;;
52740;SDS011;38634;52.138;9.912;2023-04-15T21:53:56;2.38;;;2.17;;
52740;SDS011;38634;52.138;9.912;2023-04-15T21:56:41;3.30;;;3.00;;
52740;SDS011;38634;52.138;9.912;2023-04-15T21:59:26;3.83;;;3.03;;
52740;SDS011;38634;52.138;9.912;2023-04-15T22:02:11;4.78;;;2.17;;
52740;SDS011;38634;52.138;9.912;2023-04-15T22:04:55;2.45;;;2.25;;
52740;SDS011;38634;52.138;9.912;2023-04-15T22:07:40;2.72;;;2.53;;
52740;SDS011;38634;52.138;9.912;2023-04-15T22:10:24;4.15;;;3.80;;
52740;SDS011;38634;52.138;9.912;2023-04-15T22:13:09;2.45;;;2.35;;
52740;SDS011;38634;52.138;9.912;2023-04-15T22:15:55;2.20;;;2.10;;
52740;SDS011;38634;52.138;9.912;2023-04-15T22:18:40;2.88;;;2.67;;
52740;SDS011;38634;52.138;9.912;2023-04-15T22:21:24;2.30;;;2.17;;
52740;SDS011;38634;52.138;9.912;2023-04-15T22:24:09;2.78;;;2.35;;
52740;SDS011;38634;52.138;9.912;2023-04-15T22:26:54;2.00;;;1.90;;
52740;SDS011;38634;52.138;9.912;2023-04-15T22:29:39;2.47;;;2.38;;
52740;SDS011;38634;52.138;9.912;2023-04-15T22:32:24;1.30;;;1.30;;
52740;SDS011;38634;52.138;9.912;2023-04-15T22:35:08;1.80;;;1.70;;
52740;SDS011;38634;52.138;9.912;2023-04-15T22:37:53;3.05;;;2.83;;
52740;SDS011;38634;52.138;9.912;2023-04-15T22:40:37;2.45;;;2.35;;
52740;SDS011;38634;52.138;9.912;2023-04-15T22:43:22;3.45;;;2.72;;
52740;SDS011;38634;52.138;9.912;2023-04-15T22:46:07;2.53;;;2.33;;
52740;SDS011;38634;52.138;9.912;2023-04-15T22:48:51;2.75;;;2.55;;
52740;SDS011;38634;52.138;9.912;2023-04-15T22:51:37;2.90;;;2.70;;
52740;SDS011;38634;52.138;9.912;2023-04-15T22:54:21;2.45;;;2.30;;
52740;SDS011;38634;52.138;9.912;2023-04-15T22:57:07;2.83;;;2.63;;
52740;SDS011;38634;52.138;9.912;2023-04-15T22:59:52;2.47;;;2.30;;
52740;SDS011;38634;52.138;9.912;2023-04-15T23:02:36;1.85;;;1.75;;
52740;SDS011;38634;52.138;9.912;2023-04-15T23:05:21;1.85;;;1.75;;
52740;SDS011;38634;52.138;9.912;2023-04-15T23:08:06;2.00;;;1.90;;
52740;SDS011;38634;52.138;9.912;2023-04-15T23:10:51;3.15;;;2.35;;
52740;SDS011;38634;52.138;9.912;2023-04-15T23:13:35;2.38;;;2.17;;
52740;SDS011;38634;52.138;9.912;2023-04-15T23:16:20;5.70;;;2.80;;
52740;SDS011;38634;52.138;9.912;2023-04-15T23:19:05;2.88;;;2.67;;
52740;SDS011;38634;52.138;9.912;2023-04-15T23:21:50;3.22;;;2.22;;
52740;SDS011;38634;52.138;9.912;2023-04-15T23:24:34;2.97;;;2.40;;
52740;SDS011;38634;52.138;9.912;2023-04-15T23:27:19;1.40;;;1.30;;
52740;SDS011;38634;52.138;9.912;2023-04-15T23:30:04;2.65;;;2.45;;
52740;SDS011;38634;52.138;9.912;2023-04-15T23:32:49;2.60;;;2.50;;
52740;SDS011;38634;52.138;9.912;2023-04-15T23:35:33;1.92;;;1.83;;
52740;SDS011;38634;52.138;9.912;2023-04-15T23:38:18;2.38;;;2.17;;
52740;SDS011;38634;52.138;9.912;2023-04-15T23:41:03;2.20;;;2.10;;
52740;SDS011;38634;52.138;9.912;2023-04-15T23:43:47;1.90;;;1.80;;
52740;SDS011;38634;52.138;9.912;2023-04-15T23:46:32;3.75;;;3.55;;
52740;SDS011;38634;52.138;9.912;2023-04-15T23:49:16;1.85;;;1.75;;
52740;SDS011;38634;52.138;9.912;2023-04-15T23:52:01;2.80;;;2.60;;
52740;SDS011;38634;52.138;9.912;2023-04-15T23:54:46;7.43;;;3.50;;
52740;SDS011;38634;52.138;9.912;2023-04-15T23:57:30;6.68;;;3.67;;
